Time;durP1;ratioP1;P1;durP2;ratioP2;P2;SDS_P1;SDS_P2;PMS_P1;PMS_P2;Temp;Humidity;BMP_temperature;BMP_pressure;BME280_temperature;BME280_humidity;BME280_pressure;Samples;Min_cycle;Max_cycle;Signal;HPM_P1;HPM_P2
2022/09/18 00:01:45;;;;;;;;;;;;;;;12.63;100.00;95675.19;109829;1247;58939;-69
2022/09/18 00:04:15;;;;;;;7.30;5.10;;;;;;;12.64;100.00;95664.92;109987;1248;68764;-69
2022/09/18 00:06:44;;;;;;;6.00;4.50;;;;;;;12.64;100.00;95658.83;109922;1247;70728;-69
2022/09/18 00:09:14;;;;;;;5.40;3.90;;;;;;;12.65;100.00;95661.15;109955;1247;69477;-70
2022/09/18 00:11:47;;;;;;;5.40;4.00;;;;;;;12.66;100.00;95673.98;109898;1248;58875;-70
2022/09/18 00:14:22;;;;;;;4.40;3.20;;;;;;;12.66;100.00;95679.31;109917;1247;58886;-70
2022/09/18 00:16:51;;;;;;;4.80;2.90;;;;;;;12.58;100.00;95676.27;109882;1247;70769;-67
2022/09/18 00:19:21;;;;;;;4.10;3.20;;;;;;;12.57;100.00;95680.11;109846;1247;69504;-69
2022/09/18 00:21:51;;;;;;;4.20;2.80;;;;;;;12.56;100.00;95672.38;109843;1247;68636;-70
2022/09/18 00:24:22;;;;;;;4.70;3.00;;;;;;;12.54;100.00;95671.85;109889;1247;58906;-70
2022/09/18 00:26:52;;;;;;;5.00;3.10;;;;;;;12.51;100.00;95680.73;109866;1251;59037;-70
2022/09/18 00:29:21;;;;;;;3.90;2.80;;;;;;;12.50;100.00;95689.59;109823;1248;70807;-69
2022/09/18 00:31:51;;;;;;;4.00;2.40;;;;;;;12.45;100.00;95680.98;109654;1249;68647;-70
2022/09/18 00:34:21;;;;;;;4.90;2.50;;;;;;;12.41;100.00;95679.66;109746;1247;69342;-70
2022/09/18 00:36:51;;;;;;;3.70;2.40;;;;;;;12.41;100.00;95678.71;109588;1250;58902;-69
2022/09/18 00:39:22;;;;;;;3.10;2.30;;;;;;;12.43;100.00;95684.34;109751;1249;58941;-69
2022/09/18 00:41:52;;;;;;;4.40;2.10;;;;;;;12.40;100.00;95678.76;109805;1250;71245;-69
2022/09/18 00:44:43;;;;;;;3.40;2.00;;;;;;;12.39;100.00;95673.13;109874;1249;67716;-69
2022/09/18 00:47:24;;;;;;;2.80;2.20;;;;;;;12.37;100.00;95668.23;110006;1245;69416;-69
2022/09/18 00:50:02;;;;;;;2.90;1.60;;;;;;;12.35;100.00;95676.48;109896;1247;58964;-69
2022/09/18 00:52:42;;;;;;;4.20;1.50;;;;;;;12.32;100.00;95682.02;109893;1247;58959;-70
2022/09/18 00:55:14;;;;;;;1.70;1.20;;;;;;;12.28;100.00;95681.07;109703;1248;70744;-69
2022/09/18 00:57:53;;;;;;;2.80;1.30;;;;;;;12.26;100.00;95680.48;109686;1247;69399;-69
2022/09/18 01:00:23;;;;;;;2.80;0.90;;;;;;;12.21;100.00;95682.58;109656;1248;68343;-69
2022/09/18 01:02:55;;;;;;;1.10;0.90;;;;;;;12.19;100.00;95683.80;109875;1248;58899;-68
2022/09/18 01:05:58;;;;;;;0.90;0.80;;;;;;;12.15;100.00;95676.54;110050;1248;58950;-69
2022/09/18 01:08:51;;;;;;;1.00;0.80;;;;;;;12.12;99.95;95669.73;109820;1248;70625;-68
2022/09/18 01:12:06;;;;;;;0.70;0.70;;;;;;;12.04;99.49;95685.73;109915;1248;68724;-67
2022/09/18 01:14:51;;;;;;;1.30;0.60;;;;;;;12.05;98.88;95695.79;109476;1249;69459;-68
2022/09/18 01:17:33;;;;;;;0.80;0.70;;;;;;;12.02;99.34;95705.54;109864;1249;59028;-69
2022/09/18 01:20:05;;;;;;;1.60;0.70;;;;;;;11.97;99.84;95706.42;109912;1249;58885;-70
2022/09/18 01:22:36;;;;;;;1.00;0.70;;;;;;;11.96;98.79;95702.46;109760;1251;70564;-69
2022/09/18 01:25:16;;;;;;;0.80;0.80;;;;;;;11.91;98.79;95696.57;109985;1249;68466;-69
2022/09/18 01:28:07;;;;;;;;;;;;;;;11.88;98.40;95714.19;109793;1248;69445;-70
2022/09/18 01:30:42;;;;;;;2.30;1.00;;;;;;;11.89;97.96;95719.15;109890;1247;58966;-69
2022/09/18 01:33:24;;;;;;;0.80;0.80;;;;;;;11.82;97.78;95717.02;109850;1249;59018;-68
2022/09/18 01:36:03;;;;;;;1.20;0.80;;;;;;;11.75;97.32;95715.48;109814;1249;69934;-68
2022/09/18 01:38:45;;;;;;;1.30;0.80;;;;;;;11.65;97.65;95722.64;109706;1248;69395;-67
2022/09/18 01:41:25;;;;;;;0.80;0.70;;;;;;;11.57;97.40;95728.19;109700;1247;69509;-68
2022/09/18 01:44:06;;;;;;;0.80;0.80;;;;;;;11.53;97.70;95735.88;109817;1249;59350;-70
2022/09/18 01:46:39;;;;;;;1.00;0.80;;;;;;;11.45;97.90;95733.40;109752;1248;58940;-69
2022/09/18 01:49:16;;;;;;;0.70;0.70;;;;;;;11.45;97.45;95733.62;109722;1249;69839;-68
2022/09/18 01:52:12;;;;;;;0.50;0.50;;;;;;;11.35;97.16;95735.64;109754;1247;68772;-69
2022/09/18 01:54:48;;;;;;;0.40;0.40;;;;;;;11.26;96.30;95747.58;108042;1249;2183670;-68
2022/09/18 01:57:26;;;;;;;0.70;0.30;;;;;;;11.14;96.97;95759.58;109728;1247;58964;-68
2022/09/18 02:00:03;;;;;;;0.50;0.40;;;;;;;11.08;96.64;95763.73;109762;1248;59218;-68
2022/09/18 02:03:11;;;;;;;0.80;0.40;;;;;;;10.91;97.46;95763.30;109722;1249;70052;-67
2022/09/18 02:05:50;;;;;;;1.70;0.40;;;;;;;10.85;96.70;95767.55;109762;1249;69310;-69
2022/09/18 02:08:58;;;;;;;0.30;0.30;;;;;;;10.80;97.46;95774.04;109638;1250;69438;-69
2022/09/18 02:11:32;;;;;;;0.40;0.40;;;;;;;10.69;97.45;95776.50;109328;1257;59029;-69
2022/09/18 02:14:20;;;;;;;0.30;0.30;;;;;;;10.65;97.08;95777.26;109639;1251;58937;-69
2022/09/18 02:17:47;;;;;;;0.40;0.40;;;;;;;10.56;97.77;95791.20;109757;1248;69976;-70
2022/09/18 02:20:22;;;;;;;0.30;0.30;;;;;;;10.38;99.94;95790.35;109716;1249;69288;-70
2022/09/18 02:22:57;;;;;;;0.40;0.30;;;;;;;10.31;100.00;95802.20;109871;1247;68618;-70
2022/09/18 02:25:52;;;;;;;0.30;0.30;;;;;;;10.26;100.00;95805.65;109980;1247;59024;-68
2022/09/18 02:28:26;;;;;;;0.30;0.30;;;;;;;10.24;100.00;95820.10;109714;1248;58812;-70
2022/09/18 02:30:57;;;;;;;0.40;0.40;;;;;;;10.17;100.00;95813.57;110017;1248;70634;-68
2022/09/18 02:33:33;;;;;;;0.80;0.30;;;;;;;10.13;100.00;95814.87;109823;1247;69459;-68
2022/09/18 02:36:42;;;;;;;0.80;0.40;;;;;;;10.14;100.00;95820.29;109749;1249;68248;-69
2022/09/18 02:39:17;;;;;;;1.10;0.40;;;;;;;10.15;100.00;95829.80;109715;1248;58889;-68
2022/09/18 02:42:08;;;;;;;2.20;0.80;;;;;;;10.13;100.00;95838.17;109972;1248;58878;-68
2022/09/18 02:44:46;;;;;;;0.40;0.40;;;;;;;10.12;100.00;95843.29;109908;1247;70778;-68
2022/09/18 02:47:26;;;;;;;0.70;0.40;;;;;;;10.12;100.00;95849.59;109658;1248;68605;-68
2022/09/18 02:50:02;;;;;;;0.50;0.40;;;;;;;10.10;100.00;95853.05;109731;1248;69272;-70
2022/09/18 02:52:44;;;;;;;0.50;0.50;;;;;;;10.04;100.00;95854.38;109903;1249;58933;-70
2022/09/18 02:55:26;;;;;;;0.70;0.50;;;;;;;10.06;100.00;95858.61;109754;1251;58878;-70
2022/09/18 02:58:01;;;;;;;0.40;0.40;;;;;;;10.04;100.00;95859.05;109703;1251;70989;-70
2022/09/18 03:00:32;;;;;;;0.40;0.40;;;;;;;9.98;100.00;95858.20;109637;1251;69477;-69
2022/09/18 03:03:13;;;;;;;0.40;0.40;;;;;;;9.95;100.00;95862.53;109803;1249;69417;-69
2022/09/18 03:05:50;;;;;;;0.50;0.50;;;;;;;9.98;100.00;95865.52;109910;1249;58962;-69
2022/09/18 03:08:21;;;;;;;0.50;0.50;;;;;;;10.02;100.00;95870.21;109993;1248;58883;-67
2022/09/18 03:10:53;;;;;;;0.50;0.50;;;;;;;10.04;100.00;95875.42;109843;1248;70557;-68
2022/09/18 03:13:25;;;;;;;0.90;0.60;;;;;;;10.07;100.00;95885.71;109768;1249;68640;-67
2022/09/18 03:15:56;;;;;;;0.50;0.50;;;;;;;10.08;100.00;95879.95;109878;1249;69539;-68
2022/09/18 03:18:27;;;;;;;0.90;0.60;;;;;;;10.11;100.00;95887.79;110007;1249;59310;-69
2022/09/18 03:20:59;;;;;;;0.60;0.60;;;;;;;10.13;100.00;95884.81;109965;1249;58850;-69
2022/09/18 03:23:29;;;;;;;;;;;;;;;10.13;100.00;95892.61;109757;1247;69903;-68
2022/09/18 03:26:13;;;;;;;0.60;0.60;;;;;;;10.12;100.00;95900.89;109746;1249;69415;-69
2022/09/18 03:28:43;;;;;;;1.00;0.60;;;;;;;10.13;100.00;95914.40;109912;1247;69492;-69
2022/09/18 03:31:14;;;;;;;0.70;0.70;;;;;;;10.13;100.00;95915.98;109787;1248;58940;-67
2022/09/18 03:33:46;;;;;;;1.40;0.70;;;;;;;10.10;99.04;95918.38;109739;1248;58840;-68
2022/09/18 03:36:16;;;;;;;3.00;0.70;;;;;;;10.09;97.07;95923.67;109903;1248;69968;-68
2022/09/18 03:38:49;;;;;;;1.40;0.90;;;;;;;10.04;96.40;95926.61;109772;1249;68888;-70
2022/09/18 03:41:21;;;;;;;0.70;0.70;;;;;;;9.93;95.15;95932.49;109666;1249;69402;-67
2022/09/18 03:43:52;;;;;;;0.90;0.70;;;;;;;9.89;95.52;95939.48;109816;1249;59285;-68
2022/09/18 03:46:23;;;;;;;0.80;0.80;;;;;;;9.75;96.87;95942.14;109687;1249;58885;-70
2022/09/18 03:48:58;;;;;;;0.80;0.70;;;;;;;9.67;97.90;95948.45;109712;1249;69956;-68
2022/09/18 03:51:31;;;;;;;0.90;0.80;;;;;;;9.59;98.50;95954.05;109760;1250;68931;-68
2022/09/18 03:54:02;;;;;;;1.40;1.00;;;;;;;9.54;99.01;95958.92;109780;1250;69376;-70
2022/09/18 03:56:58;;;;;;;1.30;1.10;;;;;;;9.49;99.57;95965.80;109637;1249;58948;-69
2022/09/18 03:59:49;;;;;;;;;;;;;;;9.39;100.00;95970.14;109929;1247;58892;-68
2022/09/18 04:02:38;;;;;;;2.70;1.30;;;;;;;9.31;100.00;95976.83;109884;1248;70006;-68
2022/09/18 04:05:36;;;;;;;2.40;1.30;;;;;;;9.24;100.00;95980.27;109970;1247;69314;-69
2022/09/18 04:08:24;;;;;;;2.50;1.20;;;;;;;9.18;100.00;95985.95;109711;1251;68885;-67
2022/09/18 04:11:09;;;;;;;1.10;1.00;;;;;;;9.14;100.00;95990.11;109917;1249;58884;-68
2022/09/18 04:13:39;;;;;;;1.70;1.50;;;;;;;9.09;100.00;95992.49;110037;1249;58955;-68
2022/09/18 04:16:09;;;;;;;2.20;1.70;;;;;;;9.05;100.00;96001.89;109995;1249;69770;-70
2022/09/18 04:18:39;;;;;;;3.90;1.70;;;;;;;9.04;100.00;96004.73;110021;1247;68753;-70
2022/09/18 04:21:09;;;;;;;1.60;1.50;;;;;;;8.95;100.00;96015.61;109876;1249;69247;-69
2022/09/18 04:23:39;;;;;;;;;;;;;;;8.93;99.99;96017.70;110048;1250;58921;-70
2022/09/18 04:26:09;;;;;;;;;;;;;;;8.95;99.58;96022.05;110153;1248;58910;-66
2022/09/18 04:28:48;;;;;;;2.30;1.20;;;;;;;8.91;97.83;96027.61;110076;1247;70798;-70
2022/09/18 04:31:18;;;;;;;;;;;;;;;8.88;97.79;96029.61;110153;1247;69406;-69
2022/09/18 04:33:49;;;;;;;;;;;;;;;8.87;97.65;96038.59;110038;1247;68420;-68
2022/09/18 04:36:22;;;;;;;1.20;1.10;;;;;;;8.82;96.57;96037.96;109964;1248;58955;-68
2022/09/18 04:38:52;;;;;;;1.10;0.90;;;;;;;8.77;95.25;96045.92;109740;1249;58885;-68
2022/09/18 04:41:22;;;;;;;;;;;;;;;8.75;95.41;96048.83;109904;1249;70760;-68
2022/09/18 04:43:51;;;;;;;1.20;1.10;;;;;;;8.68;95.94;96054.10;109773;1250;68611;-68
2022/09/18 04:46:20;;;;;;;1.50;1.30;;;;;;;8.61;95.35;96056.45;109667;1249;68675;-68
2022/09/18 04:48:52;;;;;;;1.30;1.20;;;;;;;8.57;95.81;96067.06;109901;1249;58885;-68
2022/09/18 04:51:24;;;;;;;1.40;1.20;;;;;;;8.59;95.80;96070.35;109792;1249;58939;-70
2022/09/18 04:53:54;;;;;;;1.60;1.40;;;;;;;8.56;95.09;96079.98;109837;1249;70609;-68
2022/09/18 04:56:24;;;;;;;1.30;1.20;;;;;;;8.56;95.62;96083.70;109901;1248;69405;-68
2022/09/18 04:58:53;;;;;;;1.60;1.20;;;;;;;8.56;95.79;96087.29;109722;1247;69448;-69
2022/09/18 05:01:22;;;;;;;1.10;1.00;;;;;;;8.53;94.32;96091.27;109921;1247;58866;-68
2022/09/18 05:03:51;;;;;;;1.90;1.30;;;;;;;8.52;94.08;96101.91;109730;1250;58977;-68
2022/09/18 05:06:28;;;;;;;1.20;1.10;;;;;;;8.51;93.83;96097.11;109722;1249;68936;-68
2022/09/18 05:09:01;;;;;;;1.30;1.20;;;;;;;8.48;93.27;96102.56;109654;1248;68630;-68
2022/09/18 05:11:31;;;;;;;1.50;0.90;;;;;;;8.51;93.66;96110.27;109844;1249;68452;-69
2022/09/18 05:14:00;;;;;;;1.00;0.90;;;;;;;8.50;93.25;96111.45;109674;1248;58876;-67
2022/09/18 05:16:30;;;;;;;;;;;;;;;8.50;92.41;96113.64;109651;1249;58889;-69
2022/09/18 05:19:25;;;;;;;1.40;1.20;;;;;;;8.57;92.99;96127.16;109574;1252;69948;-70
2022/09/18 05:22:00;;;;;;;1.00;0.90;;;;;;;8.57;91.70;96135.84;109708;1249;68619;-69
2022/09/18 05:24:31;;;;;;;1.50;0.90;;;;;;;8.55;92.35;96145.71;109714;1249;68665;-66
2022/09/18 05:27:00;;;;;;;1.00;0.90;;;;;;;8.59;92.25;96143.67;109690;1249;58889;-67
2022/09/18 05:29:29;;;;;;;1.70;1.00;;;;;;;8.57;92.06;96147.84;109855;1248;58907;-70
2022/09/18 05:32:05;;;;;;;1.20;1.00;;;;;;;8.62;91.55;96148.05;109889;1252;70639;-70
2022/09/18 05:34:35;;;;;;;1.40;1.00;;;;;;;8.69;90.55;96147.17;109955;1250;70159;-70
2022/09/18 05:37:04;;;;;;;1.20;0.90;;;;;;;8.77;91.05;96148.94;109761;1249;69842;-69
2022/09/18 05:39:33;;;;;;;1.20;0.90;;;;;;;8.83;90.37;96151.81;109533;1251;58911;-68
2022/09/18 05:42:02;;;;;;;1.00;0.90;;;;;;;8.87;89.39;96151.70;109776;1250;59008;-69
2022/09/18 05:44:31;;;;;;;1.00;0.90;;;;;;;8.87;88.21;96158.94;109894;1252;69877;-67
2022/09/18 05:47:00;;;;;;;0.80;0.70;;;;;;;8.84;87.52;96166.02;109910;1248;69974;-69
2022/09/18 05:49:31;;;;;;;0.70;0.70;;;;;;;8.86;88.57;96170.91;109788;1249;69247;-68
2022/09/18 05:51:59;;;;;;;1.00;0.90;;;;;;;8.94;88.34;96171.73;109922;1248;58885;-68
2022/09/18 05:54:29;;;;;;;0.80;0.80;;;;;;;8.92;88.34;96179.25;109860;1249;58886;-68
2022/09/18 05:56:58;;;;;;;1.60;0.90;;;;;;;8.87;87.17;96184.31;109910;1249;69975;-69
2022/09/18 05:59:27;;;;;;;0.90;0.80;;;;;;;8.86;86.59;96182.04;109786;1250;69839;-68
2022/09/18 06:01:56;;;;;;;0.60;0.60;;;;;;;8.79;85.85;96194.77;109876;1249;69545;-67
2022/09/18 06:04:36;;;;;;;0.80;0.70;;;;;;;8.77;86.12;96193.39;109776;1249;58965;-68
2022/09/18 06:07:08;;;;;;;2.30;1.40;;;;;;;8.80;86.58;96192.23;109962;1247;58956;-69
2022/09/18 06:09:38;;;;;;;3.20;1.80;;;;;;;8.84;86.86;96196.45;109755;1249;70552;-69
2022/09/18 06:12:07;;;;;;;1.80;0.70;;;;;;;8.82;87.15;96210.16;109768;1249;69179;-69
2022/09/18 06:14:36;;;;;;;0.90;0.80;;;;;;;8.84;86.76;96218.34;109723;1249;69836;-66
2022/09/18 06:17:05;;;;;;;0.70;0.70;;;;;;;8.85;85.31;96220.35;109819;1249;58955;-67
2022/09/18 06:19:34;;;;;;;0.90;0.80;;;;;;;8.87;85.64;96221.67;110033;1248;59276;-67
2022/09/18 06:22:02;;;;;;;0.90;0.70;;;;;;;8.93;84.96;96222.42;109754;1248;70552;-68
2022/09/18 06:24:32;;;;;;;0.60;0.50;;;;;;;8.93;84.74;96222.77;109721;1248;69450;-68
2022/09/18 06:27:06;;;;;;;0.60;0.60;;;;;;;8.93;83.75;96227.27;109762;1248;69861;-68
2022/09/18 06:29:35;;;;;;;0.50;0.50;;;;;;;8.94;83.96;96229.27;109692;1249;58949;-67
2022/09/18 06:32:09;;;;;;;2.00;0.60;;;;;;;8.94;83.08;96232.78;109741;1248;58830;-69
2022/09/18 06:34:39;;;;;;;1.30;0.70;;;;;;;9.00;83.82;96236.63;109840;1249;70097;-71
2022/09/18 06:37:09;;;;;;;;;;;;;;;9.08;84.62;96236.91;110104;1249;68613;-69
2022/09/18 06:39:44;;;;;;;0.80;0.80;;;;;;;9.14;84.40;96250.17;109712;1248;68670;-70
2022/09/18 06:42:20;;;;;;;0.50;0.50;;;;;;;9.18;83.19;96257.09;109999;1249;58937;-69
2022/09/18 06:45:08;;;;;;;0.80;0.50;;;;;;;9.23;82.38;96262.48;109970;1249;59257;-70
2022/09/18 06:47:38;;;;;;;0.60;0.60;;;;;;;9.18;81.85;96267.17;109806;1250;70060;-65
2022/09/18 06:50:07;;;;;;;0.60;0.60;;;;;;;9.20;81.16;96269.16;109945;1249;68604;-69
2022/09/18 06:52:37;;;;;;;0.80;0.60;;;;;;;9.31;82.44;96274.79;109975;1249;68326;-69
2022/09/18 06:55:06;;;;;;;0.60;0.50;;;;;;;9.34;82.18;96280.63;109739;1249;58888;-68
2022/09/18 06:57:35;;;;;;;0.60;0.50;;;;;;;9.39;81.54;96287.88;109852;1249;58873;-68
2022/09/18 07:00:05;;;;;;;0.50;0.50;;;;;;;9.43;80.99;96288.38;109873;1249;70770;-70
2022/09/18 07:02:37;;;;;;;1.10;0.60;;;;;;;9.48;80.95;96297.49;110039;1249;68623;-68
2022/09/18 07:05:26;;;;;;;0.50;0.50;;;;;;;9.53;80.92;96301.26;109866;1249;70240;-68
2022/09/18 07:07:54;;;;;;;1.20;0.60;;;;;;;9.50;79.00;96309.17;109823;1249;58906;-68
2022/09/18 07:10:24;;;;;;;0.60;0.60;;;;;;;9.48;78.82;96312.98;109642;1251;59017;-66
2022/09/18 07:12:57;;;;;;;0.60;0.60;;;;;;;9.48;78.25;96305.70;109728;1249;69970;-67
2022/09/18 07:15:27;;;;;;;0.70;0.60;;;;;;;9.47;78.67;96313.98;109783;1249;69833;-69
2022/09/18 07:17:57;;;;;;;1.60;0.60;;;;;;;9.51;79.33;96321.95;109846;1249;69517;-70
2022/09/18 07:20:26;;;;;;;0.40;0.40;;;;;;;9.63;79.61;96321.23;109747;1249;58973;-69
2022/09/18 07:22:59;;;;;;;0.50;0.50;;;;;;;9.62;78.01;96327.78;109745;1249;58859;-70
2022/09/18 07:25:39;;;;;;;0.80;0.70;;;;;;;9.57;77.59;96333.75;110005;1249;71061;-68
2022/09/18 07:28:10;;;;;;;0.70;0.70;;;;;;;9.66;78.79;96332.98;109703;1251;69985;-67
2022/09/18 07:30:45;;;;;;;0.80;0.60;;;;;;;9.70;77.74;96334.02;109723;1249;68652;-68
2022/09/18 07:33:15;;;;;;;0.70;0.50;;;;;;;9.84;78.95;96338.23;109798;1249;58964;-68
2022/09/18 07:35:47;;;;;;;0.60;0.60;;;;;;;9.89;78.52;96343.14;109640;1252;58893;-68
2022/09/18 07:38:17;;;;;;;;;;;;;;;9.83;78.56;96349.58;109634;1252;70549;-68
2022/09/18 07:40:59;;;;;;;0.50;0.50;;;;;;;9.84;78.44;96353.90;109748;1249;69851;-69
2022/09/18 07:43:33;;;;;;;1.70;0.50;;;;;;;9.89;78.54;96354.52;109919;1249;69848;-67
2022/09/18 07:46:02;;;;;;;0.70;0.60;;;;;;;9.89;78.97;96360.04;109751;1249;59005;-70
2022/09/18 07:48:33;;;;;;;0.90;0.60;;;;;;;9.94;78.16;96359.23;109753;1252;58961;-68
2022/09/18 07:51:31;;;;;;;0.70;0.60;;;;;;;9.94;78.02;96358.23;109680;1249;70735;-66
2022/09/18 07:54:00;;;;;;;0.70;0.70;;;;;;;9.85;78.65;96366.69;109745;1249;67749;-68
2022/09/18 07:57:07;;;;;;;1.50;0.90;;;;;;;9.90;78.92;96370.38;109411;1254;69538;-66
2022/09/18 07:59:45;;;;;;;0.60;0.60;;;;;;;9.84;78.34;96369.69;109289;1255;59027;-67
2022/09/18 08:02:14;;;;;;;1.70;0.80;;;;;;;9.90;78.84;96371.06;109650;1249;58896;-68
2022/09/18 08:04:43;;;;;;;1.00;0.80;;;;;;;10.01;78.45;96371.52;109803;1248;70818;-68
2022/09/18 08:07:20;;;;;;;0.60;0.60;;;;;;;10.11;78.63;96373.60;109760;1249;69782;-67
2022/09/18 08:09:57;;;;;;;0.80;0.70;;;;;;;10.23;78.64;96376.91;109891;1248;69963;-66
2022/09/18 08:12:54;;;;;;;1.20;0.80;;;;;;;10.30;75.54;96372.83;109812;1249;58951;-68
2022/09/18 08:15:43;;;;;;;0.60;0.60;;;;;;;10.48;76.49;96372.86;109891;1249;58896;-68
2022/09/18 08:18:40;;;;;;;0.60;0.60;;;;;;;10.66;75.23;96366.69;109524;1250;70772;-67
2022/09/18 08:21:17;;;;;;;0.80;0.60;;;;;;;10.81;75.02;96370.04;109985;1247;69876;-68
2022/09/18 08:23:49;;;;;;;0.80;0.80;;;;;;;10.91;74.73;96369.36;109754;1249;69600;-68
2022/09/18 08:26:18;;;;;;;1.70;1.00;;;;;;;10.88;75.46;96373.27;109905;1247;58854;-67
2022/09/18 08:28:51;;;;;;;1.10;1.00;;;;;;;10.75;76.84;96375.11;109902;1249;58888;-68
2022/09/18 08:31:21;;;;;;;1.40;1.00;;;;;;;10.51;78.15;96372.41;109928;1247;70046;-68
2022/09/18 08:33:54;;;;;;;1.50;1.10;;;;;;;10.42;78.34;96377.40;109533;1251;69545;-69
2022/09/18 08:36:22;;;;;;;1.30;1.00;;;;;;;10.55;78.04;96376.72;109782;1247;69507;-67
2022/09/18 08:38:59;;;;;;;1.50;1.00;;;;;;;10.79;78.44;96376.16;109782;1248;58965;-68
2022/09/18 08:42:19;;;;;;;1.10;0.80;;;;;;;10.91;77.86;96379.40;109807;1249;58861;-66
2022/09/18 08:45:25;;;;;;;1.20;0.70;;;;;;;10.98;76.41;96371.48;109681;1248;70267;-68
2022/09/18 08:48:10;;;;;;;0.60;0.60;;;;;;;10.96;76.54;96375.19;110079;1247;69203;-67
2022/09/18 08:50:48;;;;;;;0.80;0.60;;;;;;;11.01;77.49;96375.58;109865;1248;70008;-69
2022/09/18 08:53:33;;;;;;;1.00;0.90;;;;;;;10.98;76.91;96379.15;109873;1249;59763;-69
2022/09/18 08:56:23;;;;;;;1.10;0.70;;;;;;;10.64;76.48;96378.71;109895;1250;59699;-67
2022/09/18 08:59:22;;;;;;;0.80;0.80;;;;;;;10.67;77.14;96377.42;109675;1250;72296;-67
2022/09/18 09:02:15;;;;;;;0.80;0.80;;;;;;;10.70;78.93;96375.90;109717;1246;69199;-67
2022/09/18 09:04:44;;;;;;;1.30;0.80;;;;;;;10.92;78.97;96375.88;109804;1249;69258;-68
2022/09/18 09:07:31;;;;;;;0.80;0.60;;;;;;;10.94;77.22;96376.73;109681;1248;59694;-67
2022/09/18 09:10:31;;;;;;;0.70;0.70;;;;;;;11.15;77.58;96382.30;109799;1249;59750;-69
2022/09/18 09:13:15;;;;;;;1.00;0.80;;;;;;;11.24;77.02;96389.91;109791;1249;71326;-67
2022/09/18 09:16:10;;;;;;;1.10;0.80;;;;;;;11.19;77.22;96391.00;109686;1251;68841;-67
2022/09/18 09:18:54;;;;;;;1.00;0.70;;;;;;;11.27;78.07;96398.48;109796;1249;68471;-67
2022/09/18 09:21:44;;;;;;;0.80;0.70;;;;;;;11.37;78.46;96399.98;109856;1250;59748;-68
2022/09/18 09:24:35;;;;;;;0.80;0.80;;;;;;;11.45;78.54;96402.96;109925;1248;59690;-68
2022/09/18 09:27:16;;;;;;;1.10;0.70;;;;;;;11.42;78.24;96406.15;109638;1247;72297;-69
2022/09/18 09:30:19;;;;;;;1.20;0.80;;;;;;;11.38;76.36;96407.45;109709;1249;67605;-68
2022/09/18 09:33:23;;;;;;;1.60;1.10;;;;;;;11.39;75.82;96410.64;109663;1249;69704;-68
2022/09/18 09:36:28;;;;;;;2.10;1.10;;;;;;;11.40;76.19;96411.09;109859;1249;59775;-68
2022/09/18 09:39:07;;;;;;;1.00;0.90;;;;;;;11.61;77.18;96405.80;109736;1249;59751;-68
2022/09/18 09:41:39;;;;;;;1.30;1.00;;;;;;;11.85;76.92;96411.10;109807;1249;70370;-68
2022/09/18 09:44:22;;;;;;;1.50;1.10;;;;;;;12.10;76.38;96414.55;109666;1249;68826;-67
2022/09/18 09:46:57;;;;;;;1.40;1.10;;;;;;;12.24;75.15;96418.59;109721;1249;69880;-67
2022/09/18 09:49:32;;;;;;;1.40;1.00;;;;;;;12.25;74.10;96421.85;109791;1249;59808;-69
2022/09/18 09:52:21;;;;;;;1.50;1.00;;;;;;;12.23;74.37;96428.24;109696;1250;59677;-69
2022/09/18 09:55:00;;;;;;;2.60;1.30;;;;;;;12.10;73.83;96439.17;109836;1250;72008;-67
2022/09/18 09:57:44;;;;;;;1.30;1.00;;;;;;;11.97;74.76;96452.20;109833;1249;69206;-68
2022/09/18 10:00:18;;;;;;;1.50;1.10;;;;;;;11.79;75.75;96454.42;109733;1249;67766;-65
2022/09/18 10:03:22;;;;;;;1.80;1.10;;;;;;;11.80;76.08;96448.41;109718;1250;60037;-67
2022/09/18 10:05:56;;;;;;;1.90;1.10;;;;;;;11.85;76.86;96449.48;109649;1250;59736;-68
2022/09/18 10:08:32;;;;;;;1.80;0.90;;;;;;;12.11;77.34;96448.43;109762;1249;71686;-67
2022/09/18 10:11:07;;;;;;;1.10;0.90;;;;;;;12.35;75.89;96447.48;109626;1249;68725;-67
2022/09/18 10:14:14;;;;;;;1.10;0.90;;;;;;;12.79;76.01;96450.94;109792;1249;69239;-68
2022/09/18 10:16:50;;;;;;;1.00;0.80;;;;;;;13.34;75.13;96463.41;109640;1249;59824;-69
2022/09/18 10:19:21;;;;;;;1.50;1.00;;;;;;;13.37;73.49;96469.71;109646;1249;60150;-68
2022/09/18 10:21:53;;;;;;;1.10;1.00;;;;;;;13.43;73.86;96480.33;109775;1249;71328;-68
2022/09/18 10:24:32;;;;;;;1.30;1.00;;;;;;;13.36;74.16;96467.58;109911;1249;69382;-68
2022/09/18 10:27:14;;;;;;;2.30;0.90;;;;;;;13.09;74.97;96473.99;109893;1249;70029;-69
2022/09/18 10:29:44;;;;;;;1.30;1.00;;;;;;;13.00;74.86;96484.93;109813;1249;59760;-71
2022/09/18 10:32:35;;;;;;;0.90;0.80;;;;;;;12.84;74.64;96490.41;109807;1249;59679;-67
2022/09/18 10:35:29;;;;;;;1.20;0.90;;;;;;;12.44;74.27;96488.70;109788;1250;72061;-68
2022/09/18 10:37:58;;;;;;;1.10;0.80;;;;;;;12.38;75.78;96489.09;109837;1249;69222;-68
2022/09/18 10:40:38;;;;;;;1.10;0.90;;;;;;;12.53;76.68;96487.44;109864;1247;69926;-68
2022/09/18 10:43:17;;;;;;;1.50;1.00;;;;;;;13.22;74.90;96486.95;109702;1251;59767;-68
2022/09/18 10:45:53;;;;;;;;;;;;;;;13.97;72.54;96480.52;109668;1248;59680;-68
2022/09/18 10:48:29;;;;;;;0.80;0.70;;;;;;;14.54;70.47;96480.88;109691;1250;70710;-68
2022/09/18 10:51:00;;;;;;;1.30;1.00;;;;;;;15.18;69.35;96477.65;109666;1249;69402;-68
2022/09/18 10:53:44;;;;;;;0.90;0.70;;;;;;;15.54;66.63;96477.00;109783;1249;69471;-67
2022/09/18 10:56:21;;;;;;;1.20;0.70;;;;;;;15.02;65.29;96483.23;109709;1250;59688;-70
2022/09/18 10:58:52;;;;;;;1.10;0.80;;;;;;;14.77;66.32;96489.64;110073;1248;59696;-69
2022/09/18 11:01:24;;;;;;;0.70;0.70;;;;;;;14.91;66.11;96483.14;110624;1248;70774;-67
2022/09/18 11:04:04;;;;;;;0.80;0.70;;;;;;;15.03;67.69;96491.71;110755;1249;69447;-68
2022/09/18 11:06:44;;;;;;;0.70;0.60;;;;;;;15.49;63.46;96489.82;109792;1248;68713;-69
2022/09/18 11:09:36;;;;;;;1.10;0.70;;;;;;;16.08;62.06;96496.76;109842;1249;59684;-67
2022/09/18 11:12:23;;;;;;;0.80;0.40;;;;;;;15.93;60.92;96500.70;109659;1249;59691;-67
2022/09/18 11:15:01;;;;;;;0.80;0.60;;;;;;;15.46;59.71;96499.90;109898;1250;70881;-67
2022/09/18 11:17:34;;;;;;;0.60;0.50;;;;;;;15.27;59.69;96510.87;109769;1249;69476;-67
2022/09/18 11:20:05;;;;;;;0.40;0.40;;;;;;;15.43;60.42;96512.17;109698;1250;68875;-67
2022/09/18 11:22:43;;;;;;;1.30;0.60;;;;;;;16.15;58.16;96513.89;109632;1250;59794;-69
2022/09/18 11:25:20;;;;;;;0.80;0.70;;;;;;;17.01;57.90;96516.71;109712;1248;59689;-68
2022/09/18 11:27:52;;;;;;;0.90;0.60;;;;;;;17.89;56.03;96515.02;109781;1249;71747;-69
2022/09/18 11:30:28;;;;;;;0.70;0.70;;;;;;;17.70;53.49;96513.69;109719;1248;68620;-68
2022/09/18 11:33:08;;;;;;;1.00;0.60;;;;;;;17.36;55.33;96522.48;109738;1250;68666;-69
2022/09/18 11:35:45;;;;;;;0.50;0.50;;;;;;;17.28;54.18;96531.73;109799;1249;59743;-69
2022/09/18 11:38:18;;;;;;;1.00;0.60;;;;;;;17.27;52.54;96535.16;109635;1248;59760;-68
2022/09/18 11:40:53;;;;;;;1.00;0.50;;;;;;;17.04;53.41;96539.02;109746;1248;71669;-70
2022/09/18 11:43:28;;;;;;;1.10;0.70;;;;;;;16.53;54.02;96545.64;109716;1250;69541;-68
2022/09/18 11:46:07;;;;;;;0.60;0.60;;;;;;;16.61;54.20;96552.96;109762;1249;69232;-68
2022/09/18 11:48:43;;;;;;;0.90;0.70;;;;;;;16.47;54.23;96554.36;109858;1250;59769;-68
2022/09/18 11:51:25;;;;;;;0.90;0.60;;;;;;;16.02;54.46;96555.94;109767;1248;59684;-68
2022/09/18 11:54:07;;;;;;;1.10;0.80;;;;;;;15.57;55.18;96557.60;109648;1251;71461;-69
2022/09/18 11:56:54;;;;;;;1.20;0.80;;;;;;;15.10;56.50;96563.26;109728;1248;69857;-70
2022/09/18 11:59:33;;;;;;;1.60;0.80;;;;;;;15.14;55.92;96562.13;109891;1248;70195;-68
2022/09/18 12:02:18;;;;;;;0.80;0.80;;;;;;;15.32;56.49;96562.66;109806;1248;59687;-65
2022/09/18 12:05:11;;;;;;;2.60;1.00;;;;;;;15.46;55.91;96572.91;109700;1249;59753;-69
2022/09/18 12:07:52;;;;;;;2.70;0.80;;;;;;;15.13;55.79;96580.84;109813;1251;71351;-67
2022/09/18 12:10:40;;;;;;;1.10;0.90;;;;;;;15.00;54.96;96575.13;109775;1249;69837;-68
2022/09/18 12:13:39;;;;;;;1.70;0.80;;;;;;;14.70;54.75;96573.40;109918;1249;69851;-69
2022/09/18 12:16:28;;;;;;;1.40;0.80;;;;;;;14.87;54.80;96584.08;109791;1249;59779;-69
2022/09/18 12:19:27;;;;;;;1.30;0.90;;;;;;;14.89;55.48;96589.96;109934;1250;60203;-68